Time;durP1;ratioP1;P1;durP2;ratioP2;P2;SDS_P1;SDS_P2;PMS_P1;PMS_P2;Temp;Humidity;BMP_temperature;BMP_pressure;BME280_temperature;BME280_humidity;BME280_pressure;Samples;Min_cycle;Max_cycle;Signal;HPM_P1;HPM_P2
2021/04/30 00:00:58;;;;;;;27.57;22.33;;;9.30;98.30;;;;;;5065149;23;20818;-79
2021/04/30 00:02:59;;;;;;;25.70;21.00;;;9.30;98.30;;;;;;5065480;23;20430;-79
2021/04/30 00:05:01;;;;;;;29.20;22.03;;;9.20;98.30;;;;;;5064833;23;20547;-79
2021/04/30 00:07:03;;;;;;;27.90;23.20;;;9.30;98.30;;;;;;5066149;23;20458;-79
2021/04/30 00:09:06;;;;;;;29.63;23.13;;;9.30;98.30;;;;;;5066318;23;20430;-80
2021/04/30 00:11:09;;;;;;;28.40;23.60;;;9.30;98.30;;;;;;5067062;23;20459;-79
2021/04/30 00:13:11;;;;;;;25.33;22.30;;;9.30;98.30;;;;;;5066657;23;20433;-79
2021/04/30 00:15:14;;;;;;;27.83;22.70;;;9.30;98.30;;;;;;5067001;23;20434;-79
2021/04/30 00:17:16;;;;;;;31.40;22.53;;;9.40;98.30;;;;;;5074939;23;20444;-79
2021/04/30 00:19:19;;;;;;;30.00;22.77;;;9.30;98.30;;;;;;5066184;23;20458;-79
2021/04/30 00:21:21;;;;;;;26.90;23.00;;;9.30;98.30;;;;;;5064804;23;20459;-79
2021/04/30 00:23:25;;;;;;;31.00;23.77;;;9.30;98.30;;;;;;5065071;23;20442;-79
2021/04/30 00:25:28;;;;;;;28.33;22.57;;;9.40;98.30;;;;;;5065562;23;20480;-79
2021/04/30 00:27:31;;;;;;;30.13;23.47;;;9.40;98.30;;;;;;5064863;23;20463;-78
2021/04/30 00:29:33;;;;;;;27.67;23.43;;;9.40;98.30;;;;;;5064344;23;20463;-79
2021/04/30 00:31:36;;;;;;;28.10;23.03;;;9.30;98.30;;;;;;5065423;23;20756;-79
2021/04/30 00:33:38;;;;;;;28.87;23.43;;;9.30;98.30;;;;;;5065878;23;20434;-79
2021/04/30 00:35:42;;;;;;;30.67;24.63;;;9.30;98.30;;;;;;5066537;23;20434;-79
2021/04/30 00:37:44;;;;;;;25.30;22.30;;;9.30;98.30;;;;;;5065043;23;20517;-79
2021/04/30 00:39:45;;;;;;;30.67;24.10;;;9.40;98.30;;;;;;5066721;23;20436;-79
2021/04/30 00:41:47;;;;;;;29.60;23.00;;;9.40;98.30;;;;;;5074320;23;20470;-79
2021/04/30 00:43:50;;;;;;;30.73;24.30;;;9.30;98.30;;;;;;5066444;23;20441;-79
2021/04/30 00:45:53;;;;;;;33.87;25.80;;;9.30;98.30;;;;;;5065910;23;20951;-79
2021/04/30 00:47:55;;;;;;;32.10;24.03;;;9.30;98.30;;;;;;5065803;23;20467;-79
2021/04/30 00:50:01;;;;;;;30.50;24.70;;;9.20;98.30;;;;;;5065929;23;20440;-79
2021/04/30 00:52:03;;;;;;;29.63;23.87;;;9.20;98.30;;;;;;5066682;23;20441;-79
2021/04/30 00:54:07;;;;;;;28.37;22.83;;;9.30;98.30;;;;;;5074079;23;20495;-79
2021/04/30 00:56:09;;;;;;;31.33;25.40;;;9.40;98.30;;;;;;5065678;23;20794;-79
2021/04/30 00:58:11;;;;;;;32.77;24.13;;;9.30;98.30;;;;;;5065629;23;20431;-79
2021/04/30 01:00:15;;;;;;;28.37;22.60;;;9.40;98.30;;;;;;5067091;23;20450;-80
2021/04/30 01:02:17;;;;;;;29.00;23.97;;;9.40;98.30;;;;;;5074146;23;20430;-79
2021/04/30 01:04:19;;;;;;;29.83;23.87;;;9.40;98.30;;;;;;5066518;23;20464;-79
2021/04/30 01:06:21;;;;;;;26.03;22.30;;;9.40;98.30;;;;;;5074421;23;20826;-80
2021/04/30 01:08:23;;;;;;;27.63;23.60;;;9.40;98.30;;;;;;5066280;23;20520;-80
2021/04/30 01:10:25;;;;;;;28.83;23.60;;;9.30;98.30;;;;;;5075014;23;20454;-80
2021/04/30 01:12:27;;;;;;;28.37;23.67;;;9.40;98.30;;;;;;5066756;23;20451;-80
2021/04/30 01:14:29;;;;;;;27.33;23.03;;;9.40;98.30;;;;;;5066387;23;20466;-79
2021/04/30 01:16:32;;;;;;;27.73;23.57;;;9.40;98.30;;;;;;5066634;23;20435;-79
2021/04/30 01:18:41;;;;;;;30.90;23.20;;;9.50;98.30;;;;;;5073646;23;20547;-79
2021/04/30 01:20:43;;;;;;;27.77;23.03;;;9.50;98.30;;;;;;5063096;23;20570;-80
2021/04/30 01:22:47;;;;;;;31.43;23.50;;;9.60;98.30;;;;;;5065323;23;20437;-79
2021/04/30 01:24:49;;;;;;;30.17;23.90;;;9.60;98.30;;;;;;5066719;23;20860;-80
2021/04/30 01:26:51;;;;;;;28.47;24.60;;;9.50;98.30;;;;;;5066759;23;20455;-79
2021/04/30 01:28:53;;;;;;;31.93;23.57;;;9.60;98.30;;;;;;5075096;23;20422;-79
2021/04/30 01:30:55;;;;;;;28.57;24.13;;;9.60;98.30;;;;;;5066959;23;20491;-80
2021/04/30 01:32:57;;;;;;;28.47;23.33;;;9.60;98.30;;;;;;5066323;23;20463;-79
2021/04/30 01:34:59;;;;;;;30.50;23.60;;;9.60;98.30;;;;;;5065493;23;20456;-79
2021/04/30 01:37:01;;;;;;;27.17;23.50;;;9.60;98.30;;;;;;5065278;23;20459;-79
2021/04/30 01:39:07;;;;;;;27.63;23.10;;;9.60;98.30;;;;;;5064666;23;20517;-79
2021/04/30 01:41:08;;;;;;;28.80;23.80;;;9.60;98.30;;;;;;5066212;23;20781;-79
2021/04/30 01:43:14;;;;;;;30.90;24.17;;;9.50;98.30;;;;;;5074378;23;20426;-79
2021/04/30 01:45:16;;;;;;;25.73;22.20;;;9.50;98.30;;;;;;5066029;23;20456;-81
2021/04/30 01:47:18;;;;;;;25.43;22.63;;;9.50;98.30;;;;;;5066403;23;20538;-79
2021/04/30 01:49:20;;;;;;;25.90;22.90;;;9.50;98.30;;;;;;5072287;23;20499;-78
2021/04/30 01:51:22;;;;;;;29.37;24.20;;;9.50;98.30;;;;;;5073047;23;20851;-78
2021/04/30 01:53:25;;;;;;;28.10;24.20;;;9.50;98.30;;;;;;5065675;23;20460;-79
2021/04/30 01:55:30;;;;;;;28.20;23.60;;;9.50;98.30;;;;;;5065621;23;20459;-80
2021/04/30 01:57:34;;;;;;;31.40;24.60;;;9.50;98.30;;;;;;5074683;23;20458;-80
2021/04/30 01:59:36;;;;;;;28.27;22.93;;;9.60;98.30;;;;;;5066079;23;20828;-80
2021/04/30 02:01:38;;;;;;;28.60;22.27;;;9.60;98.30;;;;;;5067449;23;20713;-80
2021/04/30 02:03:40;;;;;;;26.33;22.83;;;9.60;98.30;;;;;;5075659;23;20814;-80
2021/04/30 02:05:43;;;;;;;28.37;24.27;;;9.60;98.30;;;;;;5065429;23;20553;-81
2021/04/30 02:07:45;;;;;;;30.10;25.43;;;9.60;98.30;;;;;;5065616;23;20443;-80
2021/04/30 02:09:47;;;;;;;25.90;22.40;;;9.50;98.30;;;;;;5067159;23;20434;-79
2021/04/30 02:11:49;;;;;;;29.87;24.10;;;9.60;98.30;;;;;;5066937;23;20703;-80
2021/04/30 02:13:51;;;;;;;29.77;25.37;;;9.50;98.30;;;;;;5066610;23;20430;-80
2021/04/30 02:15:54;;;;;;;27.80;22.80;;;9.50;98.30;;;;;;5066814;23;20448;-79
2021/04/30 02:17:57;;;;;;;27.83;24.30;;;9.50;98.30;;;;;;5078149;23;20778;-80
2021/04/30 02:19:59;;;;;;;27.57;23.57;;;9.40;98.30;;;;;;5070552;23;20476;-80
2021/04/30 02:22:00;;;;;;;29.30;24.63;;;9.40;98.30;;;;;;5070873;23;20434;-80
2021/04/30 02:24:04;;;;;;;29.70;24.10;;;9.50;98.30;;;;;;5070407;23;20441;-79
2021/04/30 02:26:06;;;;;;;27.87;23.80;;;9.50;98.30;;;;;;5069683;23;20810;-80
2021/04/30 02:28:09;;;;;;;27.90;23.20;;;9.50;98.30;;;;;;5070540;23;20434;-80
2021/04/30 02:30:14;;;;;;;30.20;23.30;;;9.60;98.30;;;;;;5071162;23;20451;-79
2021/04/30 02:32:16;;;;;;;32.87;24.27;;;9.60;98.30;;;;;;5077655;23;20426;-80
2021/04/30 02:34:18;;;;;;;32.00;24.77;;;9.60;98.30;;;;;;5075324;23;20461;-80
2021/04/30 02:36:20;;;;;;;28.73;23.50;;;9.60;98.30;;;;;;5066342;23;20764;-80
2021/04/30 02:38:21;;;;;;;29.73;23.20;;;9.60;98.30;;;;;;5066129;23;20436;-79
2021/04/30 02:40:26;;;;;;;26.77;21.73;;;9.60;98.30;;;;;;5074415;23;20455;-80
2021/04/30 02:42:28;;;;;;;28.10;23.00;;;9.60;98.30;;;;;;5074597;23;20454;-80
2021/04/30 02:44:30;;;;;;;30.07;24.60;;;9.60;98.30;;;;;;5065950;23;20456;-80
2021/04/30 02:46:33;;;;;;;25.80;22.03;;;9.60;98.30;;;;;;5065854;23;20455;-80
2021/04/30 02:48:37;;;;;;;28.30;22.70;;;9.60;98.30;;;;;;5065294;23;20543;-80
2021/04/30 02:50:40;;;;;;;31.53;23.53;;;9.60;98.30;;;;;;5073569;23;20448;-80
2021/04/30 02:52:42;;;;;;;26.60;22.63;;;9.60;98.30;;;;;;5066102;23;20543;-79
2021/04/30 02:54:45;;;;;;;28.70;22.43;;;9.60;98.30;;;;;;5074325;23;20458;-80
2021/04/30 02:56:47;;;;;;;31.20;23.53;;;9.60;98.30;;;;;;5066000;23;20430;-80
2021/04/30 02:58:53;;;;;;;29.37;22.60;;;9.60;98.30;;;;;;5073582;23;20778;-80
2021/04/30 03:00:56;;;;;;;27.33;21.30;;;9.60;98.30;;;;;;5065481;23;20522;-80
2021/04/30 03:03:00;;;;;;;24.43;20.40;;;9.60;98.30;;;;;;5073025;23;20463;-79
2021/04/30 03:05:02;;;;;;;27.57;23.50;;;9.60;98.30;;;;;;5064186;23;20796;-79
2021/04/30 03:07:04;;;;;;;25.57;21.47;;;9.60;98.30;;;;;;5064390;23;20441;-79
2021/04/30 03:09:07;;;;;;;28.60;20.90;;;9.60;98.30;;;;;;5064489;23;20459;-79
2021/04/30 03:11:08;;;;;;;24.53;21.10;;;9.60;98.30;;;;;;5064597;23;20455;-79
2021/04/30 03:13:10;;;;;;;27.50;20.63;;;9.60;98.30;;;;;;5065387;23;20434;-79
2021/04/30 03:15:14;;;;;;;27.23;20.00;;;9.60;98.30;;;;;;5065775;23;20521;-79
2021/04/30 03:17:17;;;;;;;23.60;19.63;;;9.60;98.30;;;;;;5065483;23;20458;-79
2021/04/30 03:19:19;;;;;;;25.30;20.83;;;9.60;98.30;;;;;;5064749;23;20467;-80
2021/04/30 03:21:22;;;;;;;24.37;20.63;;;9.60;98.30;;;;;;5076955;23;22140;-80
2021/04/30 03:23:25;;;;;;;23.13;18.97;;;9.60;98.30;;;;;;5097318;23;20538;-80
2021/04/30 03:25:27;;;;;;;23.53;19.63;;;9.50;98.30;;;;;;5088577;23;20750;-80
2021/04/30 03:27:29;;;;;;;40.43;28.77;;;9.50;98.30;;;;;;5088789;23;20458;-80
2021/04/30 03:29:31;;;;;;;111.47;74.20;;;9.50;98.30;;;;;;5088036;23;20459;-82
2021/04/30 03:31:33;;;;;;;178.83;102.93;;;9.60;98.30;;;;;;5089038;23;20469;-82
2021/04/30 03:33:36;;;;;;;87.00;54.20;;;9.50;98.30;;;;;;5098072;23;20450;-81
2021/04/30 03:35:38;;;;;;;44.43;33.00;;;9.50;98.30;;;;;;5096974;23;20454;-82
2021/04/30 03:37:40;;;;;;;46.07;26.53;;;9.50;98.30;;;;;;5089727;23;20469;-81
2021/04/30 03:39:42;;;;;;;72.93;47.93;;;9.60;98.30;;;;;;5098085;23;20447;-82
2021/04/30 03:41:44;;;;;;;148.43;82.33;;;9.70;98.30;;;;;;5090020;23;20434;-82
2021/04/30 03:43:46;;;;;;;145.47;90.10;;;9.70;98.30;;;;;;5104015;23;20457;-82
2021/04/30 03:45:50;;;;;;;51.00;33.90;;;9.70;98.30;;;;;;5097602;23;20425;-82
2021/04/30 03:47:57;;;;;;;26.27;22.20;;;9.60;98.30;;;;;;5096724;23;20914;-82
2021/04/30 03:50:03;;;;;;;29.83;20.73;;;9.60;98.30;;;;;;5096859;23;20452;-81
2021/04/30 03:52:07;;;;;;;26.70;20.63;;;9.50;98.30;;;;;;5099154;23;20462;-81
2021/04/30 03:54:10;;;;;;;23.80;20.23;;;9.50;98.30;;;;;;5092250;23;20439;-81
2021/04/30 03:56:12;;;;;;;26.23;21.13;;;9.50;98.30;;;;;;5091969;23;20459;-81
2021/04/30 03:58:14;;;;;;;27.43;23.30;;;9.50;98.30;;;;;;5092313;23;20429;-82
2021/04/30 04:00:17;;;;;;;32.53;25.73;;;9.50;98.30;;;;;;5100911;23;20455;-82
2021/04/30 04:02:19;;;;;;;28.43;23.07;;;9.60;98.30;;;;;;5093665;23;20489;-82
2021/04/30 04:04:21;;;;;;;23.77;19.50;;;9.60;98.30;;;;;;5094374;23;20429;-82
2021/04/30 04:06:24;;;;;;;21.87;18.47;;;9.60;98.30;;;;;;5092862;23;20468;-82
2021/04/30 04:08:27;;;;;;;23.00;20.57;;;9.50;98.30;;;;;;5093764;23;20432;-82
2021/04/30 04:10:29;;;;;;;20.87;18.67;;;9.50;98.30;;;;;;5093645;23;20454;-82
2021/04/30 04:12:31;;;;;;;26.93;21.83;;;9.50;98.30;;;;;;5093204;23;20790;-82
2021/04/30 04:14:33;;;;;;;28.60;22.07;;;9.50;98.30;;;;;;5100870;23;20447;-82
2021/04/30 04:16:35;;;;;;;31.47;24.90;;;9.60;98.30;;;;;;5101097;23;20432;-82
2021/04/30 04:18:37;;;;;;;33.40;25.90;;;9.50;98.30;;;;;;5092197;23;20998;-81
2021/04/30 04:20:40;;;;;;;27.90;21.00;;;9.50;98.30;;;;;;5092610;23;20828;-82
2021/04/30 04:22:43;;;;;;;27.27;20.80;;;9.50;98.30;;;;;;5094829;23;20486;-82
2021/04/30 04:24:46;;;;;;;22.17;19.83;;;9.50;98.30;;;;;;5100819;23;20486;-81
2021/04/30 04:26:48;;;;;;;24.50;20.60;;;9.50;98.30;;;;;;5091741;23;20443;-81
2021/04/30 04:28:50;;;;;;;24.37;21.80;;;9.50;98.30;;;;;;5093034;23;20434;-82
2021/04/30 04:30:52;;;;;;;28.70;22.40;;;9.50;98.30;;;;;;5093220;23;20454;-82
2021/04/30 04:32:54;;;;;;;26.60;21.00;;;9.60;98.30;;;;;;5095864;23;20454;-82
2021/04/30 04:34:56;;;;;;;25.50;21.67;;;9.60;98.30;;;;;;5096408;23;20458;-81
2021/04/30 04:36:58;;;;;;;27.50;22.20;;;9.60;98.30;;;;;;5102536;23;20446;-82
2021/04/30 04:39:01;;;;;;;29.63;22.00;;;9.60;98.30;;;;;;5094288;23;20450;-81
2021/04/30 04:41:03;;;;;;;27.00;22.77;;;9.50;98.30;;;;;;5095515;23;20747;-82
2021/04/30 04:43:05;;;;;;;29.50;23.73;;;9.40;98.30;;;;;;5096321;23;20516;-81
2021/04/30 04:45:09;;;;;;;27.00;22.80;;;9.30;98.30;;;;;;5097752;23;20454;-81
2021/04/30 04:47:11;;;;;;;29.13;24.57;;;9.30;98.30;;;;;;5104726;23;20454;-82
2021/04/30 04:49:13;;;;;;;28.40;24.27;;;9.30;98.30;;;;;;5091440;23;20976;-81
2021/04/30 04:51:15;;;;;;;30.90;24.53;;;9.30;98.30;;;;;;5092845;23;20461;-82
2021/04/30 04:53:16;;;;;;;35.60;27.40;;;9.30;98.30;;;;;;5094525;23;20490;-82
2021/04/30 04:55:20;;;;;;;35.83;26.50;;;9.30;98.30;;;;;;5101025;23;20460;-81
2021/04/30 04:57:22;;;;;;;34.27;27.13;;;9.30;98.30;;;;;;5092894;23;20482;-82
2021/04/30 04:59:23;;;;;;;31.80;26.57;;;9.30;98.30;;;;;;5092013;23;20485;-82
2021/04/30 05:01:26;;;;;;;32.13;26.20;;;9.30;98.30;;;;;;5101662;23;20432;-81
2021/04/30 05:03:28;;;;;;;28.37;25.20;;;9.30;98.30;;;;;;5102178;23;20451;-81
2021/04/30 05:05:30;;;;;;;31.10;25.23;;;9.30;98.30;;;;;;5093529;23;20434;-81
2021/04/30 05:07:32;;;;;;;30.93;25.30;;;9.40;98.30;;;;;;5092440;23;20433;-82
2021/04/30 05:09:33;;;;;;;30.93;25.33;;;9.40;98.30;;;;;;5091331;23;20478;-82
2021/04/30 05:11:36;;;;;;;30.70;25.20;;;9.40;98.30;;;;;;5093231;23;20512;-81
2021/04/30 05:13:38;;;;;;;30.17;24.70;;;9.50;98.30;;;;;;5100888;23;20542;-81
2021/04/30 05:15:42;;;;;;;34.70;26.97;;;9.50;98.30;;;;;;5102086;23;20463;-80
2021/04/30 05:17:44;;;;;;;31.70;25.43;;;9.50;98.30;;;;;;5092624;23;20533;-82
2021/04/30 05:19:48;;;;;;;31.50;26.43;;;9.60;98.30;;;;;;5099629;23;20981;-82
2021/04/30 05:21:52;;;;;;;29.33;24.90;;;9.50;98.30;;;;;;5091986;23;20444;-82
2021/04/30 05:23:59;;;;;;;30.67;24.33;;;9.60;98.30;;;;;;5092763;23;20454;-82
2021/04/30 05:26:01;;;;;;;29.10;24.60;;;9.50;98.30;;;;;;5099392;23;20449;-82
2021/04/30 05:28:05;;;;;;;34.03;26.73;;;9.60;98.30;;;;;;5100697;23;20454;-82
2021/04/30 05:30:08;;;;;;;29.07;24.53;;;9.60;98.30;;;;;;5101474;23;20451;-82
2021/04/30 05:32:11;;;;;;;30.13;24.67;;;9.70;98.30;;;;;;5101005;23;20432;-82
2021/04/30 05:34:14;;;;;;;29.37;24.57;;;9.70;98.30;;;;;;5093484;23;20447;-82
2021/04/30 05:36:16;;;;;;;29.60;24.30;;;9.70;98.30;;;;;;5092292;23;20508;-84
2021/04/30 05:38:18;;;;;;;30.87;24.63;;;9.70;98.30;;;;;;5100813;23;20788;-83
2021/04/30 05:40:20;;;;;;;29.90;24.90;;;9.80;98.30;;;;;;5093814;23;20441;-82
2021/04/30 05:42:22;;;;;;;29.67;24.70;;;9.80;98.30;;;;;;5093764;23;20597;-82
2021/04/30 05:44:27;;;;;;;29.37;23.40;;;9.80;98.30;;;;;;5101639;23;20848;-84
2021/04/30 05:46:28;;;;;;;27.53;23.43;;;9.80;98.30;;;;;;5091336;23;20450;-82
2021/04/30 05:48:31;;;;;;;26.40;23.50;;;9.80;98.30;;;;;;5092267;23;20486;-82
2021/04/30 05:50:32;;;;;;;29.70;25.00;;;9.90;98.30;;;;;;5093967;23;20463;-82
2021/04/30 05:52:35;;;;;;;28.23;23.83;;;9.90;98.30;;;;;;5098997;23;20995;-82
2021/04/30 05:54:37;;;;;;;26.27;23.40;;;9.90;98.30;;;;;;5092108;23;20441;-82
2021/04/30 05:56:39;;;;;;;26.80;23.90;;;9.90;98.30;;;;;;5091301;23;20987;-82
2021/04/30 05:58:41;;;;;;;27.10;23.67;;;10.00;98.30;;;;;;5092016;23;21067;-82
2021/04/30 06:00:43;;;;;;;27.63;24.23;;;10.00;98.30;;;;;;5091612;23;21333;-81
2021/04/30 06:02:45;;;;;;;28.70;25.40;;;10.00;98.30;;;;;;5092899;23;20426;-82
2021/04/30 06:04:47;;;;;;;26.10;23.33;;;10.00;98.30;;;;;;5094232;23;20474;-83
2021/04/30 06:06:50;;;;;;;29.50;26.30;;;10.00;98.30;;;;;;5092645;23;20472;-82
2021/04/30 06:08:54;;;;;;;28.47;23.57;;;10.10;98.30;;;;;;5092149;23;20809;-82
2021/04/30 06:10:56;;;;;;;26.67;23.77;;;10.00;98.30;;;;;;5092607;23;21098;-82
2021/04/30 06:13:06;;;;;;;27.30;23.57;;;10.00;98.30;;;;;;5104666;23;20446;-83
2021/04/30 06:15:08;;;;;;;27.17;23.40;;;10.00;98.30;;;;;;5103892;23;20453;-83
2021/04/30 06:17:14;;;;;;;27.60;23.73;;;10.10;98.30;;;;;;5094960;23;20765;-82
2021/04/30 06:19:19;;;;;;;31.27;24.43;;;10.10;98.30;;;;;;5102284;23;20482;-82
2021/04/30 06:21:21;;;;;;;28.13;24.97;;;10.20;98.30;;;;;;5092905;23;20458;-82
2021/04/30 06:23:23;;;;;;;30.20;25.03;;;10.20;98.30;;;;;;5092998;23;20455;-82
2021/04/30 06:25:25;;;;;;;28.27;24.63;;;10.30;98.30;;;;;;5102362;23;20446;-82
2021/04/30 06:27:28;;;;;;;26.77;23.90;;;10.30;98.30;;;;;;5092475;23;20463;-82
2021/04/30 06:29:32;;;;;;;27.40;23.13;;;10.20;98.30;;;;;;5101979;23;20451;-82
2021/04/30 06:31:43;;;;;;;27.50;23.80;;;10.30;98.30;;;;;;5093442;23;20461;-82
2021/04/30 06:33:48;;;;;;;27.23;24.00;;;10.40;98.30;;;;;;5102281;23;20773;-82
2021/04/30 06:35:51;;;;;;;28.17;23.43;;;10.40;98.30;;;;;;5094539;23;20451;-82
2021/04/30 06:37:53;;;;;;;28.70;23.83;;;10.50;98.30;;;;;;5101937;23;20537;-81
2021/04/30 06:39:55;;;;;;;26.30;23.50;;;10.70;98.30;;;;;;5102005;23;20474;-82
2021/04/30 06:42:01;;;;;;;24.00;20.53;;;10.80;98.30;;;;;;5101449;23;21102;-81
2021/04/30 06:44:04;;;;;;;22.37;19.93;;;10.80;98.30;;;;;;5102889;23;20514;-82
2021/04/30 06:46:11;;;;;;;21.60;19.30;;;10.80;98.30;;;;;;5104760;23;20880;-82
2021/04/30 06:48:16;;;;;;;20.97;18.67;;;10.80;98.30;;;;;;5103988;23;20450;-82
2021/04/30 06:50:19;;;;;;;22.40;19.87;;;10.80;98.30;;;;;;5096323;23;20455;-82
2021/04/30 06:52:20;;;;;;;24.23;21.37;;;10.90;98.30;;;;;;5096478;23;20470;-82
2021/04/30 06:54:23;;;;;;;21.43;19.20;;;10.90;98.30;;;;;;5105328;23;20486;-82
2021/04/30 06:56:25;;;;;;;23.83;21.00;;;11.10;98.30;;;;;;5104050;23;20451;-83
2021/04/30 06:58:27;;;;;;;21.77;19.50;;;11.30;98.30;;;;;;5096168;23;20578;-80
2021/04/30 07:00:29;;;;;;;22.07;19.37;;;11.40;98.30;;;;;;5094899;23;20463;-81
2021/04/30 07:02:31;;;;;;;21.37;19.13;;;11.40;98.30;;;;;;5090778;23;20466;-79
2021/04/30 07:04:33;;;;;;;22.97;20.40;;;11.30;98.30;;;;;;5091298;23;20537;-81
2021/04/30 07:06:36;;;;;;;21.80;19.30;;;11.40;98.30;;;;;;5090930;23;20980;-82
2021/04/30 07:08:38;;;;;;;22.17;19.87;;;11.30;98.30;;;;;;5098139;23;20455;-82
2021/04/30 07:10:40;;;;;;;20.73;18.57;;;11.30;98.30;;;;;;5090561;23;21003;-81
2021/04/30 07:12:42;;;;;;;21.17;18.50;;;11.20;98.30;;;;;;5090216;23;20461;-82
2021/04/30 07:14:44;;;;;;;20.93;18.33;;;11.20;98.30;;;;;;5090762;23;20461;-81
2021/04/30 07:16:46;;;;;;;22.50;20.20;;;11.20;98.30;;;;;;5090159;23;20462;-80
2021/04/30 07:18:48;;;;;;;20.73;18.70;;;11.10;98.30;;;;;;5090357;23;20450;-79
2021/04/30 07:20:50;;;;;;;20.53;18.23;;;11.10;98.30;;;;;;5090679;23;20466;-80
2021/04/30 07:22:52;;;;;;;19.27;17.37;;;11.10;98.30;;;;;;5090525;23;20992;-80
2021/04/30 07:24:54;;;;;;;20.27;18.17;;;11.10;98.30;;;;;;5091017;23;20453;-81
2021/04/30 07:26:56;;;;;;;21.13;17.87;;;11.10;98.30;;;;;;5092091;23;21026;-80
2021/04/30 07:28:58;;;;;;;18.40;16.60;;;11.00;98.30;;;;;;5091824;23;20473;-82
2021/04/30 07:31:02;;;;;;;18.83;16.83;;;10.90;98.30;;;;;;5091436;23;20455;-81
2021/04/30 07:33:04;;;;;;;21.00;18.80;;;10.90;98.30;;;;;;5091432;23;20457;-81
2021/04/30 07:35:14;;;;;;;19.57;17.50;;;11.00;98.30;;;;;;5091262;23;20545;-80
2021/04/30 07:37:16;;;;;;;19.97;17.57;;;11.00;98.30;;;;;;5090971;23;20476;-80
2021/04/30 07:39:19;;;;;;;19.57;17.23;;;10.90;98.30;;;;;;5091078;23;20512;-81
2021/04/30 07:41:22;;;;;;;21.10;18.30;;;10.80;98.30;;;;;;5091582;23;20454;-81
2021/04/30 07:43:28;;;;;;;18.80;16.80;;;10.70;98.30;;;;;;5092222;23;20455;-81
2021/04/30 07:45:30;;;;;;;19.60;17.20;;;10.80;98.30;;;;;;5091340;23;20455;-82
2021/04/30 07:47:32;;;;;;;17.73;15.87;;;10.90;98.30;;;;;;5091259;23;20543;-80
2021/04/30 07:49:34;;;;;;;17.20;15.50;;;10.90;98.30;;;;;;5090547;23;20540;-82
2021/04/30 07:51:39;;;;;;;17.67;15.80;;;11.00;98.30;;;;;;5090949;23;20461;-82
2021/04/30 07:53:40;;;;;;;16.47;14.27;;;11.00;98.30;;;;;;5090888;23;20505;-81
2021/04/30 07:55:43;;;;;;;16.67;14.90;;;11.20;98.30;;;;;;5090835;23;20542;-81
2021/04/30 07:57:45;;;;;;;17.03;15.27;;;11.30;98.30;;;;;;5091102;23;20490;-82
2021/04/30 07:59:47;;;;;;;16.17;14.50;;;11.40;98.30;;;;;;5091605;23;20459;-82
2021/04/30 08:01:49;;;;;;;16.30;14.70;;;11.50;98.30;;;;;;5091699;23;20455;-81
2021/04/30 08:03:51;;;;;;;15.87;14.27;;;11.50;98.30;;;;;;5092072;23;20451;-81
2021/04/30 08:05:54;;;;;;;16.83;15.03;;;11.60;98.30;;;;;;5097012;23;20465;-81
2021/04/30 08:07:59;;;;;;;15.93;14.33;;;11.80;98.30;;;;;;5092309;23;20469;-81
2021/04/30 08:10:01;;;;;;;14.80;13.03;;;12.00;98.30;;;;;;5092512;23;20530;-81
2021/04/30 08:12:05;;;;;;;13.80;12.40;;;12.00;98.30;;;;;;5092612;23;20461;-81
2021/04/30 08:14:09;;;;;;;14.50;13.20;;;12.00;98.30;;;;;;5092705;23;20883;-82
2021/04/30 08:16:11;;;;;;;16.00;14.50;;;12.20;98.30;;;;;;5101242;23;20457;-82
2021/04/30 08:18:13;;;;;;;13.67;12.37;;;12.20;98.30;;;;;;5093270;23;20450;-81
2021/04/30 08:20:15;;;;;;;14.60;13.17;;;12.20;98.30;;;;;;5101074;23;20458;-81
2021/04/30 08:22:17;;;;;;;13.77;12.47;;;12.20;98.30;;;;;;5093669;23;20559;-81
2021/04/30 08:24:20;;;;;;;14.13;12.83;;;12.20;98.30;;;;;;5093586;23;20457;-82
2021/04/30 08:26:22;;;;;;;16.60;14.93;;;12.10;98.30;;;;;;5092970;23;20465;-82
2021/04/30 08:28:25;;;;;;;15.90;14.30;;;12.00;98.30;;;;;;5092969;23;20459;-82
2021/04/30 08:30:27;;;;;;;15.87;14.37;;;12.00;98.30;;;;;;5093594;23;20486;-82
2021/04/30 08:32:28;;;;;;;16.07;14.53;;;11.90;98.30;;;;;;5101465;23;20454;-81
2021/04/30 08:34:31;;;;;;;15.60;13.17;;;11.90;98.30;;;;;;5101275;23;20446;-82
2021/04/30 08:36:48;;;;;;;14.50;13.20;;;11.90;98.30;;;;;;5093498;23;20462;-82
2021/04/30 08:38:50;;;;;;;16.17;14.67;;;12.00;98.30;;;;;;5092688;23;20446;-82
2021/04/30 08:40:52;;;;;;;15.60;14.10;;;12.00;98.30;;;;;;5093111;23;20487;-81
2021/04/30 08:42:55;;;;;;;16.17;14.07;;;12.00;98.30;;;;;;5092842;23;20522;-82
2021/04/30 08:44:58;;;;;;;16.10;14.57;;;11.90;98.30;;;;;;5100861;23;20454;-81
2021/04/30 08:47:00;;;;;;;16.03;14.57;;;11.80;98.30;;;;;;5092807;23;20482;-82
2021/04/30 08:49:04;;;;;;;13.30;11.97;;;12.00;98.30;;;;;;5092328;23;20762;-81
2021/04/30 08:51:06;;;;;;;13.50;12.30;;;12.00;98.30;;;;;;5092872;23;20529;-82
2021/04/30 08:53:08;;;;;;;12.67;11.40;;;12.00;98.30;;;;;;5101073;23;20455;-82
2021/04/30 08:55:14;;;;;;;15.90;13.30;;;12.20;98.30;;;;;;5092634;23;20455;-82
2021/04/30 08:57:25;;;;;;;13.73;12.53;;;12.30;98.30;;;;;;5100569;23;20458;-81
2021/04/30 08:59:27;;;;;;;14.17;12.77;;;12.30;98.30;;;;;;5093281;23;20458;-82
2021/04/30 09:01:30;;;;;;;14.20;12.60;;;12.40;98.30;;;;;;5092694;23;20451;-81
2021/04/30 09:03:34;;;;;;;13.27;12.00;;;12.50;98.30;;;;;;5093944;23;20995;-82
2021/04/30 09:05:36;;;;;;;14.13;12.73;;;12.60;98.30;;;;;;5093944;23;20894;-82
2021/04/30 09:07:41;;;;;;;13.67;12.37;;;12.70;98.30;;;;;;5091492;23;20459;-80
2021/04/30 09:10:01;;;;;;;13.30;12.03;;;12.60;98.30;;;;;;5098800;23;20455;-82
2021/04/30 09:12:03;;;;;;;15.07;13.67;;;12.70;98.30;;;;;;5091328;23;20461;-79
2021/04/30 09:14:23;;;;;;;14.60;13.10;;;12.60;98.30;;;;;;5098071;23;20501;-81
2021/04/30 09:16:25;;;;;;;13.80;12.47;;;12.60;98.30;;;;;;5090016;23;20824;-80
2021/04/30 09:18:28;;;;;;;22.73;20.43;;;12.70;98.30;;;;;;5089910;23;20849;-80
2021/04/30 09:20:38;;;;;;;19.27;17.37;;;12.80;98.30;;;;;;5090405;23;20489;-80
2021/04/30 09:22:42;;;;;;;62.50;42.87;;;13.00;98.30;;;;;;5092280;23;20586;-81
2021/04/30 09:24:50;;;;;;;20.33;18.20;;;13.30;98.30;;;;;;5093427;23;20478;-82
2021/04/30 09:26:52;;;;;;;21.13;16.20;;;13.30;98.30;;;;;;5091599;23;20477;-80
2021/04/30 09:29:02;;;;;;;15.83;14.23;;;13.30;98.30;;;;;;5093580;23;20462;-82
2021/04/30 09:31:08;;;;;;;15.80;14.17;;;13.40;98.30;;;;;;5093019;23;20458;-81
2021/04/30 09:33:14;;;;;;;16.37;14.50;;;13.40;98.30;;;;;;5093793;23;21014;-82
2021/04/30 09:35:23;;;;;;;40.93;33.93;;;13.20;98.30;;;;;;5093524;23;20458;-82
2021/04/30 09:37:27;;;;;;;80.27;53.80;;;13.20;98.30;;;;;;5093918;23;20451;-81
2021/04/30 09:39:30;;;;;;;26.90;24.00;;;13.20;98.30;;;;;;5091592;23;20457;-81
2021/04/30 09:41:32;;;;;;;15.40;13.90;;;13.30;98.30;;;;;;5090791;23;20477;-80
2021/04/30 09:43:45;;;;;;;14.27;12.80;;;12.90;98.30;;;;;;5098999;23;20455;-80
2021/04/30 09:45:48;;;;;;;14.23;12.80;;;12.90;98.30;;;;;;5090210;23;20454;-81
2021/04/30 09:47:50;;;;;;;13.20;12.00;;;12.90;98.30;;;;;;5089905;23;20465;-81
2021/04/30 09:49:53;;;;;;;15.43;13.40;;;13.10;98.30;;;;;;5090956;23;21003;-81
2021/04/30 09:51:57;;;;;;;15.67;14.07;;;13.20;98.30;;;;;;5090482;23;20459;-82
2021/04/30 09:54:15;;;;;;;12.63;11.47;;;13.30;98.30;;;;;;5099295;23;20506;-81
2021/04/30 09:56:18;;;;;;;14.07;12.67;;;13.40;98.30;;;;;;5089941;23;20529;-81
2021/04/30 09:58:21;;;;;;;13.70;12.50;;;13.40;98.30;;;;;;5089428;23;20457;-82
2021/04/30 10:00:23;;;;;;;13.00;11.80;;;13.50;98.30;;;;;;5088934;23;20494;-80
2021/04/30 10:02:26;;;;;;;13.00;11.80;;;13.70;98.30;;;;;;5089426;23;20457;-81
2021/04/30 10:04:31;;;;;;;13.57;12.37;;;13.70;98.20;;;;;;5089353;23;20481;-80
2021/04/30 10:06:33;;;;;;;12.57;11.37;;;13.90;98.30;;;;;;5089302;23;20465;-81
2021/04/30 10:08:37;;;;;;;13.07;11.80;;;14.20;97.90;;;;;;5088723;23;20470;-81
2021/04/30 10:10:39;;;;;;;14.93;13.60;;;14.40;97.90;;;;;;5089657;23;20461;-82
2021/04/30 10:12:43;;;;;;;14.47;13.10;;;14.70;97.20;;;;;;5089643;23;20469;-81
2021/04/30 10:14:47;;;;;;;13.43;12.23;;;14.80;96.80;;;;;;5089429;23;20856;-81
2021/04/30 10:16:49;;;;;;;12.03;11.03;;;15.00;96.60;;;;;;5089588;23;20455;-80
2021/04/30 10:18:51;;;;;;;9.90;9.10;;;15.20;95.30;;;;;;5089726;23;20451;-80
2021/04/30 10:20:53;;;;;;;11.23;10.20;;;15.30;91.90;;;;;;5090123;23;20454;-81
2021/04/30 10:22:57;;;;;;;10.93;10.03;;;15.50;91.90;;;;;;5097338;23;20451;-81
2021/04/30 10:25:01;;;;;;;10.17;9.23;;;15.60;91.10;;;;;;5088894;23;20467;-81
2021/04/30 10:27:03;;;;;;;11.27;10.17;;;15.90;92.10;;;;;;5089598;23;20816;-81
2021/04/30 10:29:08;;;;;;;11.80;10.90;;;16.30;91.20;;;;;;5088572;23;20459;-81